Welcome to Northern Hawkes Bay. New Zealand.
PWS Header
      nz Flag



Hit Counter


W3C Valid W3C Valid logo


    Wairoa

Select any of the Stations below to visit their websites.










Historic Data from Weather Underground
Select the location of interest below. Wairoa is the default. Please have patience, this Data is slow to load in.
Northern Hawkes Bay Historical Data
Daily Summary for May 19, 2017 Units:  Metric    English   Both
« Previous Day
Next Day »
Daily Weekly Monthly Yearly Custom
  High: Low: Average:
Temperature: 20.7 °C 8.6 °C 12.9 °C
Dew Point: 9.6 °C 3.3 °C 6.4 °C
Humidity: 99% 41% 66%
Wind Speed: 28.0km/h 0.0km/h 7.8km/h
Wind Gust: 51.5km/h - -
Wind- - West
Pressure: 1013.1 hPa 1005.3 hPa -
Precipitation: 0.0 mm    
Historical Graphs
 
 
Tabular Data for May 19, 2017
Time Temperature Dew Point Pressure Wind Wind Speed Wind Gust Humidity Rainfall Rate (Hourly) solar
00:03 9.7 °C 9.6 °C 1006.3 hPa NNW 3.5 km/h 6.1 km/h 99% 0.0 mm 0 W/m2
00:08 9.7 °C 9.6 °C 1006.3 hPa NW 3.5 km/h 7.2 km/h 99% 0.0 mm 0 W/m2
00:13 9.6 °C 9.3 °C 1006.3 hPa NW 2.6 km/h 7.2 km/h 98% 0.0 mm 0 W/m2
00:18 9.5 °C 9.2 °C 1006.3 hPa NW 2.6 km/h 6.1 km/h 98% 0.0 mm 0 W/m2
00:23 9.5 °C 9.1 °C 1006.3 hPa NW 2.6 km/h 5.0 km/h 97% 0.0 mm 0 W/m2
00:28 9.4 °C 8.9 °C 1006.3 hPa NW 2.6 km/h 5.0 km/h 97% 0.0 mm 0 W/m2
00:33 9.4 °C 8.9 °C 1006.3 hPa NW 2.6 km/h 5.0 km/h 97% 0.0 mm 0 W/m2
00:38 9.4 °C 8.8 °C 1006.3 hPa NW 3.5 km/h 5.0 km/h 96% 0.0 mm 0 W/m2
00:55 9.5 °C 8.9 °C 1006.0 hPa NW 3.5 km/h 7.2 km/h 96% 0.0 mm 0 W/m2
01:00 9.8 °C 9.1 °C 1006.0 hPa North 3.5 km/h 7.2 km/h 95% 0.0 mm 0 W/m2
01:06 10.1 °C 9.0 °C 1006.3 hPa North 5.0 km/h 9.7 km/h 93% 0.0 mm 0 W/m2
01:11 10.2 °C 8.9 °C 1005.6 hPa North 5.0 km/h 9.7 km/h 92% 0.0 mm 0 W/m2
01:16 10.3 °C 8.7 °C 1005.6 hPa North 6.1 km/h 9.7 km/h 90% 0.0 mm 0 W/m2
01:21 10.5 °C 8.8 °C 1005.3 hPa North 1.1 km/h 9.7 km/h 89% 0.0 mm 0 W/m2
01:26 10.4 °C 8.5 °C 1005.6 hPa NNW 2.6 km/h 9.7 km/h 88% 0.0 mm 0 W/m2
01:31 10.1 °C 8.1 °C 1005.6 hPa NW 3.5 km/h 6.1 km/h 87% 0.0 mm 0 W/m2
01:36 9.7 °C 7.8 °C 1005.6 hPa NW 2.6 km/h 7.2 km/h 88% 0.0 mm 0 W/m2
01:41 9.5 °C 7.6 °C 1005.6 hPa NW 6.1 km/h 8.7 km/h 88% 0.0 mm 0 W/m2
01:46 9.4 °C 7.7 °C 1005.6 hPa NW 6.1 km/h 11.1 km/h 89% 0.0 mm 0 W/m2
01:51 9.4 °C 7.7 °C 1006.0 hPa NW 5.0 km/h 11.1 km/h 89% 0.0 mm 0 W/m2
01:56 9.4 °C 7.8 °C 1006.0 hPa NW 7.2 km/h 12.2 km/h 90% 0.0 mm 0 W/m2
02:01 9.4 °C 7.8 °C 1006.3 hPa NW 5.0 km/h 12.2 km/h 90% 0.0 mm 0 W/m2
02:07 9.3 °C 7.7 °C 1006.3 hPa NW 2.6 km/h 9.7 km/h 90% 0.0 mm 0 W/m2
02:12 9.2 °C 7.7 °C 1006.7 hPa NW 1.1 km/h 6.1 km/h 90% 0.0 mm 0 W/m2
02:17 9.1 °C 7.6 °C 1006.7 hPa Calm   5.0 km/h 90% 0.0 mm 0 W/m2
02:22 8.9 °C 7.5 °C 1006.7 hPa Calm   5.0 km/h 91% 0.0 mm 0 W/m2
02:27 8.7 °C 7.3 °C 1006.7 hPa NNE 2.6 km/h 6.1 km/h 91% 0.0 mm 0 W/m2
02:32 8.7 °C 7.5 °C 1006.7 hPa NNE 1.1 km/h 6.1 km/h 92% 0.0 mm 0 W/m2
02:37 9.3 °C 7.9 °C 1006.7 hPa North 5.0 km/h 8.7 km/h 91% 0.0 mm 0 W/m2
02:42 9.7 °C 7.8 °C 1006.3 hPa North 6.1 km/h 12.2 km/h 88% 0.0 mm 0 W/m2
02:47 10.2 °C 7.6 °C 1006.3 hPa NNW 3.5 km/h 12.2 km/h 84% 0.0 mm 0 W/m2
02:52 10.4 °C 7.3 °C 1006.3 hPa North 2.6 km/h 9.7 km/h 81% 0.0 mm 0 W/m2
02:57 10.3 °C 7.0 °C 1006.7 hPa Calm   6.1 km/h 80% 0.0 mm 0 W/m2
03:02 10.1 °C 6.8 °C 1006.7 hPa Calm   5.0 km/h 80% 0.0 mm 0 W/m2
03:07 9.8 °C 6.7 °C 1006.7 hPa Calm   2.6 km/h 81% 0.0 mm 0 W/m2
03:12 9.5 °C 6.8 °C 1006.7 hPa Calm   3.5 km/h 83% 0.0 mm 0 W/m2
03:17 9.3 °C 6.6 °C 1007.0 hPa Calm   3.5 km/h 83% 0.0 mm 0 W/m2
03:22 9.2 °C 6.7 °C 1007.0 hPa Calm     84% 0.0 mm 0 W/m2
03:27 9.3 °C 6.7 °C 1007.0 hPa Calm     84% 0.0 mm 0 W/m2
03:32 9.5 °C 6.9 °C 1007.0 hPa Calm   2.6 km/h 84% 0.0 mm 0 W/m2
03:37 9.3 °C 6.6 °C 1006.7 hPa North 1.1 km/h 6.1 km/h 83% 0.0 mm 0 W/m2
03:42 9.1 °C 6.2 °C 1007.0 hPa Calm   6.1 km/h 82% 0.0 mm 0 W/m2
03:47 8.6 °C 5.9 °C 1007.0 hPa Calm   3.5 km/h 83% 0.0 mm 0 W/m2
03:52 8.7 °C 6.3 °C 1006.7 hPa NNW 2.6 km/h 5.0 km/h 85% 0.0 mm 0 W/m2
03:57 9.1 °C 6.4 °C 1006.7 hPa Calm   5.0 km/h 83% 0.0 mm 0 W/m2
04:02 9.2 °C 6.3 °C 1006.7 hPa NNE 3.5 km/h 5.0 km/h 82% 0.0 mm 0 W/m2
04:07 9.5 °C 6.2 °C 1006.7 hPa NE 1.1 km/h 5.0 km/h 80% 0.0 mm 0 W/m2
04:12 9.8 °C 6.2 °C 1006.7 hPa Calm   5.0 km/h 78% 0.0 mm 0 W/m2
04:17 9.8 °C 5.9 °C 1006.7 hPa NNE 2.6 km/h 5.0 km/h 77% 0.0 mm 0 W/m2
04:22 10.0 °C 5.8 °C 1006.7 hPa NNE 2.6 km/h 5.0 km/h 75% 0.0 mm 0 W/m2
04:27 9.9 °C 5.9 °C 1007.0 hPa Calm   6.1 km/h 76% 0.0 mm 0 W/m2
04:32 9.6 °C 5.6 °C 1007.0 hPa NE 3.5 km/h 6.1 km/h 76% 0.0 mm 0 W/m2
04:37 9.6 °C 5.8 °C 1007.0 hPa NE 2.6 km/h 6.1 km/h 77% 0.0 mm 0 W/m2
04:42 9.6 °C 5.8 °C 1007.0 hPa NE 1.1 km/h 6.1 km/h 77% 0.0 mm 0 W/m2
04:47 9.5 °C 5.7 °C 1007.0 hPa North 2.6 km/h 6.1 km/h 77% 0.0 mm 0 W/m2
04:52 9.7 °C 5.9 °C 1007.3 hPa North 3.5 km/h 6.1 km/h 77% 0.0 mm 0 W/m2
04:57 9.6 °C 5.6 °C 1007.7 hPa Calm   6.1 km/h 76% 0.0 mm 0 W/m2
05:02 9.7 °C 5.7 °C 1007.7 hPa NE 1.1 km/h 6.1 km/h 76% 0.0 mm 0 W/m2
05:07 10.0 °C 5.8 °C 1007.7 hPa NE 1.1 km/h 3.5 km/h 75% 0.0 mm 0 W/m2
05:12 10.0 °C 5.6 °C 1008.0 hPa NNE 3.5 km/h 6.1 km/h 74% 0.0 mm 0 W/m2
05:17 10.1 °C 5.7 °C 1008.0 hPa Calm   6.1 km/h 74% 0.0 mm 0 W/m2
05:22 10.2 °C 5.8 °C 1008.4 hPa East 1.1 km/h 5.0 km/h 74% 0.0 mm 0 W/m2
05:27 10.0 °C 5.6 °C 1008.4 hPa Calm   5.0 km/h 74% 0.0 mm 0 W/m2
05:32 9.6 °C 5.6 °C 1008.7 hPa West 1.1 km/h 6.1 km/h 76% 0.0 mm 0 W/m2
05:37 9.4 °C 5.6 °C 1008.7 hPa WNW 3.5 km/h 6.1 km/h 77% 0.0 mm 0 W/m2
05:42 9.5 °C 5.8 °C 1008.7 hPa NW 6.1 km/h 8.7 km/h 78% 0.0 mm 0 W/m2
05:58 11.9 °C 9.4 °C 1009.4 hPa SSW 25.6 km/h 37.8 km/h 85% 0.0 mm 0 W/m2
06:04 11.8 °C 9.4 °C 1009.7 hPa South 28.0 km/h 43.9 km/h 85% 0.0 mm 0 W/m2
06:09 11.6 °C 9.0 °C 1010.0 hPa South 21.9 km/h 47.9 km/h 84% 0.0 mm 0 W/m2
06:14 11.7 °C 9.1 °C 1010.0 hPa South 19.5 km/h 47.9 km/h 84% 0.0 mm 0 W/m2
06:19 11.7 °C 9.3 °C 1010.0 hPa South 20.9 km/h 46.5 km/h 85% 0.0 mm 0 W/m2
06:24 11.7 °C 9.1 °C 1010.4 hPa South 24.5 km/h 51.5 km/h 84% 0.0 mm 0 W/m2
06:29 11.5 °C 8.9 °C 1010.0 hPa South 19.5 km/h 51.5 km/h 84% 0.0 mm 0 W/m2
06:34 11.4 °C 8.8 °C 1010.4 hPa South 27.0 km/h 37.8 km/h 84% 0.0 mm 0 W/m2
06:39 11.4 °C 8.8 °C 1010.4 hPa SSW 21.9 km/h 36.7 km/h 84% 0.0 mm 0 W/m2
06:44 11.3 °C 8.7 °C 1010.4 hPa SSW 20.9 km/h 36.7 km/h 84% 0.0 mm 0 W/m2
06:49 11.3 °C 8.9 °C 1010.7 hPa SSW 24.5 km/h 36.7 km/h 85% 0.0 mm 0 W/m2
06:54 11.3 °C 8.7 °C 1010.7 hPa South 14.8 km/h 36.7 km/h 84% 0.0 mm 0 W/m2
06:59 11.2 °C 8.4 °C 1011.1 hPa SSW 19.5 km/h 36.7 km/h 83% 0.0 mm 0 W/m2
07:04 11.2 °C 8.2 °C 1011.1 hPa SSW 14.8 km/h 39.3 km/h 82% 0.0 mm 0 W/m2
07:09 11.1 °C 8.2 °C 1011.1 hPa SSW 18.3 km/h 39.3 km/h 82% 0.0 mm 2 W/m2
07:14 11.1 °C 8.2 °C 1011.1 hPa South 14.8 km/h 30.6 km/h 82% 0.0 mm 4 W/m2
07:19 11.1 °C 7.4 °C 1011.4 hPa South 14.8 km/h 33.1 km/h 78% 0.0 mm 6 W/m2
07:24 11.3 °C 7.6 °C 1011.4 hPa SSW 12.2 km/h 33.1 km/h 78% 0.0 mm 8 W/m2
07:29 11.3 °C 7.2 °C 1011.7 hPa SW 18.3 km/h 28.0 km/h 76% 0.0 mm 11 W/m2
07:34 11.4 °C 7.3 °C 1011.7 hPa SSW 17.2 km/h 28.0 km/h 76% 0.0 mm 12 W/m2
07:39 11.3 °C 7.2 °C 1011.7 hPa SSW 20.9 km/h 28.0 km/h 76% 0.0 mm 17 W/m2
07:44 11.3 °C 7.1 °C 1011.7 hPa SSW 13.4 km/h 31.7 km/h 75% 0.0 mm 20 W/m2
07:49 11.3 °C 7.4 °C 1011.4 hPa SW 14.8 km/h 31.7 km/h 77% 0.0 mm 26 W/m2
07:54 11.3 °C 7.2 °C 1011.7 hPa SW 13.4 km/h 27.0 km/h 76% 0.0 mm 56 W/m2
07:59 11.5 °C 7.4 °C 1011.7 hPa SW 13.4 km/h 27.0 km/h 76% 0.0 mm 101 W/m2
08:04 11.6 °C 7.5 °C 1011.7 hPa SSW 13.4 km/h 24.5 km/h 76% 0.0 mm 118 W/m2
08:09 11.9 °C 7.6 °C 1011.7 hPa SSW 11.1 km/h 24.5 km/h 75% 0.0 mm 135 W/m2
08:14 12.2 °C 7.7 °C 1012.1 hPa SW 9.7 km/h 24.5 km/h 74% 0.0 mm 155 W/m2
08:19 12.4 °C 7.9 °C 1012.1 hPa SW 7.2 km/h 24.5 km/h 74% 0.0 mm 162 W/m2
08:24 12.6 °C 8.1 °C 1012.4 hPa WSW 2.6 km/h 20.9 km/h 74% 0.0 mm 182 W/m2
08:29 13.1 °C 8.6 °C 1012.4 hPa WSW 8.7 km/h 12.2 km/h 74% 0.0 mm 123 W/m2
08:34 13.2 °C 8.4 °C 1012.4 hPa SW 6.1 km/h 12.2 km/h 73% 0.0 mm 208 W/m2
08:39 13.5 °C 8.6 °C 1012.8 hPa WSW 8.7 km/h 12.2 km/h 72% 0.0 mm 228 W/m2
08:44 13.5 °C 8.2 °C 1012.8 hPa WSW 6.1 km/h 12.2 km/h 70% 0.0 mm 147 W/m2
08:49 13.3 °C 8.2 °C 1012.8 hPa SW 5.0 km/h 12.2 km/h 71% 0.0 mm 251 W/m2
08:54 13.3 °C 7.9 °C 1012.8 hPa SW 8.7 km/h 15.8 km/h 70% 0.0 mm 91 W/m2
08:59 12.9 °C 8.0 °C 1012.8 hPa SW 6.1 km/h 15.8 km/h 72% 0.0 mm 190 W/m2
09:04 13.6 °C 8.4 °C 1012.4 hPa SW 2.6 km/h 12.2 km/h 71% 0.0 mm 267 W/m2
09:09 14.5 °C 8.9 °C 1012.8 hPa WSW 5.0 km/h 8.7 km/h 69% 0.0 mm 272 W/m2
09:12 14.7 °C 8.8 °C 1012.8 hPa WSW 1.1 km/h 7.2 km/h 68% 0.0 mm 180 W/m2
09:17 14.4 °C 8.6 °C 1012.8 hPa West 5.0 km/h 8.7 km/h 68% 0.0 mm 121 W/m2
09:22 13.3 °C 7.7 °C 1012.8 hPa NW 8.7 km/h 11.1 km/h 69% 0.0 mm 108 W/m2
09:27 12.8 °C 7.9 °C 1012.8 hPa NW 6.1 km/h 11.1 km/h 72% 0.0 mm 117 W/m2
09:32 12.7 °C 8.0 °C 1013.1 hPa NW 3.5 km/h 11.1 km/h 73% 0.0 mm 168 W/m2
09:37 13.3 °C 8.6 °C 1013.1 hPa NW 7.2 km/h 9.7 km/h 73% 0.0 mm 113 W/m2
09:42 13.0 °C 8.1 °C 1013.1 hPa NNW 7.2 km/h 9.7 km/h 72% 0.0 mm 111 W/m2
09:47 12.6 °C 7.9 °C 1013.1 hPa NW 5.0 km/h 9.7 km/h 73% 0.0 mm 127 W/m2
09:52 12.7 °C 8.0 °C 1013.1 hPa WNW 2.6 km/h 8.7 km/h 73% 0.0 mm 126 W/m2
09:57 12.7 °C 8.0 °C 1013.1 hPa WNW 1.1 km/h 7.2 km/h 73% 0.0 mm 111 W/m2
10:02 12.6 °C 7.9 °C 1013.1 hPa NW 1.1 km/h 6.1 km/h 73% 0.0 mm 136 W/m2
10:07 12.5 °C 7.8 °C 1013.1 hPa NW 3.5 km/h 6.1 km/h 73% 0.0 mm 136 W/m2
10:12 12.9 °C 8.2 °C 1012.8 hPa NW 1.1 km/h 6.1 km/h 73% 0.0 mm 138 W/m2
10:17 13.9 °C 8.7 °C 1013.1 hPa Calm   5.0 km/h 71% 0.0 mm 142 W/m2
10:22 15.3 °C 9.2 °C 1012.8 hPa NNW 3.5 km/h 6.1 km/h 67% 0.0 mm 117 W/m2
10:27 15.2 °C 8.2 °C 1012.8 hPa North 3.5 km/h 9.7 km/h 63% 0.0 mm 104 W/m2
10:32 15.0 °C 8.0 °C 1013.1 hPa North 2.6 km/h 9.7 km/h 63% 0.0 mm 133 W/m2
10:37 15.5 °C 8.5 °C 1012.8 hPa North 5.0 km/h 12.2 km/h 63% 0.0 mm 110 W/m2
10:42 14.7 °C 7.7 °C 1012.8 hPa North 8.7 km/h 12.2 km/h 63% 0.0 mm 141 W/m2
10:47 14.8 °C 8.1 °C 1012.8 hPa North 6.1 km/h 11.1 km/h 64% 0.0 mm 202 W/m2
10:52 15.0 °C 8.0 °C 1012.8 hPa NNE 6.1 km/h 11.1 km/h 63% 0.0 mm 248 W/m2
10:57 14.8 °C 8.1 °C 1012.8 hPa North 3.5 km/h 11.1 km/h 64% 0.0 mm 291 W/m2
11:02 15.0 °C 8.0 °C 1012.8 hPa NNE 9.7 km/h 13.4 km/h 63% 0.0 mm 309 W/m2
11:07 14.5 °C 8.0 °C 1012.8 hPa NNE 9.7 km/h 13.4 km/h 65% 0.0 mm 307 W/m2
11:12 14.6 °C 8.3 °C 1012.8 hPa NNE 7.2 km/h 13.4 km/h 66% 0.0 mm 309 W/m2
11:17 14.5 °C 8.0 °C 1012.4 hPa NNE 5.0 km/h 13.4 km/h 65% 0.0 mm 306 W/m2
11:22 14.7 °C 8.2 °C 1012.8 hPa North 9.7 km/h 15.8 km/h 65% 0.0 mm 302 W/m2
11:27 15.0 °C 8.5 °C 1012.4 hPa North 7.2 km/h 15.8 km/h 65% 0.0 mm 295 W/m2
11:32 15.1 °C 8.1 °C 1012.4 hPa North 8.7 km/h 15.8 km/h 63% 0.0 mm 290 W/m2
11:37 15.4 °C 8.4 °C 1012.4 hPa North 7.2 km/h 15.8 km/h 63% 0.0 mm 279 W/m2
11:42 15.6 °C 8.6 °C 1012.4 hPa North 5.0 km/h 13.4 km/h 63% 0.0 mm 275 W/m2
11:47 15.7 °C 8.7 °C 1012.1 hPa North 7.2 km/h 14.8 km/h 63% 0.0 mm 265 W/m2
11:52 15.8 °C 8.6 °C 1012.1 hPa North 6.1 km/h 14.8 km/h 62% 0.0 mm 254 W/m2
11:57 15.7 °C 8.4 °C 1011.7 hPa North 6.1 km/h 15.8 km/h 62% 0.0 mm 238 W/m2
12:02 16.3 °C 8.5 °C 1011.7 hPa North 3.5 km/h 15.8 km/h 60% 0.0 mm 224 W/m2
12:07 16.6 °C 8.3 °C 1011.7 hPa NNE 3.5 km/h 8.7 km/h 58% 0.0 mm 205 W/m2
12:12 16.6 °C 8.3 °C 1011.4 hPa North 6.1 km/h 14.8 km/h 58% 0.0 mm 180 W/m2
12:17 16.8 °C 8.5 °C 1011.4 hPa North 5.0 km/h 14.8 km/h 58% 0.0 mm 162 W/m2
12:22 16.8 °C 8.2 °C 1011.1 hPa NE 9.7 km/h 15.8 km/h 57% 0.0 mm 139 W/m2
12:27 16.8 °C 8.5 °C 1011.1 hPa NNE 5.0 km/h 15.8 km/h 58% 0.0 mm 116 W/m2
12:32 16.9 °C 8.6 °C 1011.1 hPa North 3.5 km/h 15.8 km/h 58% 0.0 mm 105 W/m2
12:37 17.4 °C 8.3 °C 1011.1 hPa North 8.7 km/h 13.4 km/h 55% 0.0 mm 95 W/m2
12:42 17.3 °C 8.4 °C 1010.7 hPa NNE 7.2 km/h 17.2 km/h 56% 0.0 mm 94 W/m2
12:47 17.4 °C 8.6 °C 1010.7 hPa NNE 6.1 km/h 17.2 km/h 56% 0.0 mm 93 W/m2
12:52 18.0 °C 8.8 °C 1010.7 hPa NNE 3.5 km/h 12.2 km/h 55% 0.0 mm 93 W/m2
12:57 18.3 °C 8.3 °C 1010.4 hPa NNE 3.5 km/h 13.4 km/h 52% 0.0 mm 86 W/m2
13:02 18.2 °C 7.6 °C 1010.4 hPa NNE 8.7 km/h 15.8 km/h 50% 0.0 mm 79 W/m2
13:07 17.9 °C 7.6 °C 1010.0 hPa North 7.2 km/h 17.2 km/h 51% 0.0 mm 79 W/m2
13:12 18.1 °C 6.9 °C 1010.0 hPa North 8.7 km/h 17.2 km/h 48% 0.0 mm 80 W/m2
13:17 17.9 °C 6.7 °C 1010.0 hPa North 6.1 km/h 15.8 km/h 48% 0.0 mm 89 W/m2
13:22 17.7 °C 6.6 °C 1010.0 hPa NNW 6.1 km/h 15.8 km/h 48% 0.0 mm 124 W/m2
13:27 18.0 °C 7.1 °C 1010.0 hPa NNW 2.6 km/h 15.8 km/h 49% 0.0 mm 99 W/m2
13:32 18.1 °C 7.5 °C 1009.7 hPa NNW 5.0 km/h 12.2 km/h 50% 0.0 mm 101 W/m2
13:37 18.7 °C 7.8 °C 1009.7 hPa North 2.6 km/h 12.2 km/h 49% 0.0 mm 126 W/m2
13:42 19.7 °C 7.8 °C 1009.7 hPa NNE 5.0 km/h 9.7 km/h 46% 0.0 mm 136 W/m2
13:47 19.8 °C 7.6 °C 1009.7 hPa North 6.1 km/h 8.7 km/h 45% 0.0 mm 144 W/m2
13:52 20.0 °C 7.7 °C 1009.7 hPa NNW 1.1 km/h 8.7 km/h 45% 0.0 mm 149 W/m2
13:57 20.7 °C 7.7 °C 1009.7 hPa North 5.0 km/h 9.7 km/h 43% 0.0 mm 133 W/m2
14:02 19.2 °C 7.3 °C 1009.7 hPa NW 2.6 km/h 9.7 km/h 46% 0.0 mm 136 W/m2
14:07 19.3 °C 7.4 °C 1009.7 hPa West 2.6 km/h 8.7 km/h 46% 0.0 mm 142 W/m2
14:12 19.1 °C 5.6 °C 1009.7 hPa NW 9.7 km/h 17.2 km/h 41% 0.0 mm 111 W/m2
14:17 17.4 °C 4.7 °C 1009.4 hPa NNW 11.1 km/h 21.9 km/h 43% 0.0 mm 119 W/m2
14:22 16.7 °C 5.1 °C 1009.7 hPa NNW 12.2 km/h 24.5 km/h 46% 0.0 mm 134 W/m2
14:27 16.7 °C 5.3 °C 1009.7 hPa NNW 12.2 km/h 25.6 km/h 47% 0.0 mm 154 W/m2
14:32 17.0 °C 5.0 °C 1009.7 hPa NW 11.1 km/h 25.6 km/h 45% 0.0 mm 203 W/m2
14:37 16.9 °C 5.2 °C 1009.4 hPa NNW 12.2 km/h 24.5 km/h 46% 0.0 mm 222 W/m2
14:42 17.2 °C 5.2 °C 1009.4 hPa NNW 12.2 km/h 24.5 km/h 45% 0.0 mm 309 W/m2
14:47 17.7 °C 4.9 °C 1009.4 hPa NNW 23.3 km/h 30.6 km/h 43% 0.0 mm 305 W/m2
14:52 17.9 °C 5.5 °C 1009.4 hPa NW 11.1 km/h 30.6 km/h 44% 0.0 mm 285 W/m2
14:57 17.8 °C 5.1 °C 1009.4 hPa NW 13.4 km/h 24.5 km/h 43% 0.0 mm 265 W/m2
15:02 17.9 °C 5.2 °C 1009.4 hPa NNW 19.5 km/h 24.5 km/h 43% 0.0 mm 258 W/m2
15:07 18.1 °C 5.3 °C 1009.4 hPa NW 13.4 km/h 24.5 km/h 43% 0.0 mm 253 W/m2
15:12 17.7 °C 4.3 °C 1009.4 hPa NW 9.7 km/h 29.4 km/h 41% 0.0 mm 253 W/m2
15:17 17.3 °C 4.3 °C 1009.4 hPa NW 11.1 km/h 29.4 km/h 42% 0.0 mm 233 W/m2
15:22 17.5 °C 4.4 °C 1009.4 hPa NNW 13.4 km/h 29.4 km/h 42% 0.0 mm 230 W/m2
15:27 17.6 °C 4.6 °C 1009.4 hPa NW 9.7 km/h 24.5 km/h 42% 0.0 mm 206 W/m2
15:32 17.4 °C 4.4 °C 1009.4 hPa NW 13.4 km/h 23.3 km/h 42% 0.0 mm 179 W/m2
15:37 17.1 °C 4.4 °C 1009.4 hPa NW 8.7 km/h 20.9 km/h 43% 0.0 mm 162 W/m2
15:42 16.8 °C 4.5 °C 1009.4 hPa NNW 13.4 km/h 29.4 km/h 44% 0.0 mm 145 W/m2
15:47 16.7 °C 4.7 °C 1009.4 hPa NNW 8.7 km/h 29.4 km/h 45% 0.0 mm 139 W/m2
15:52 16.9 °C 4.6 °C 1009.4 hPa NW 12.2 km/h 21.9 km/h 44% 0.0 mm 117 W/m2
15:57 16.7 °C 4.7 °C 1009.4 hPa NW 11.1 km/h 19.5 km/h 45% 0.0 mm 95 W/m2
16:02 16.6 °C 4.6 °C 1009.4 hPa NW 6.1 km/h 23.3 km/h 45% 0.0 mm 78 W/m2
16:07 16.4 °C 4.4 °C 1009.0 hPa NW 7.2 km/h 23.3 km/h 45% 0.0 mm 63 W/m2
16:12 16.1 °C 4.5 °C 1009.0 hPa NW 6.1 km/h 23.3 km/h 46% 0.0 mm 52 W/m2
16:17 15.8 °C 4.5 °C 1009.0 hPa NW 11.1 km/h 19.5 km/h 47% 0.0 mm 45 W/m2
16:22 15.8 °C 5.1 °C 1009.4 hPa NW 7.2 km/h 18.3 km/h 49% 0.0 mm 40 W/m2
16:27 15.6 °C 4.9 °C 1009.0 hPa NW 9.7 km/h 14.8 km/h 49% 0.0 mm 35 W/m2
16:32 15.3 °C 4.7 °C 1009.0 hPa NW 11.1 km/h 15.8 km/h 49% 0.0 mm 31 W/m2
16:48 14.1 °C 4.9 °C 1008.7 hPa NNW 7.2 km/h 17.2 km/h 54% 0.0 mm 12 W/m2
16:53 13.8 °C 4.9 °C 1008.7 hPa NNW 7.2 km/h 14.8 km/h 55% 0.0 mm 9 W/m2
16:58 13.5 °C 4.9 °C 1008.7 hPa NW 9.7 km/h 17.2 km/h 56% 0.0 mm 5 W/m2
17:03 13.2 °C 4.6 °C 1008.4 hPa NNW 5.0 km/h 17.2 km/h 56% 0.0 mm 3 W/m2
17:08 13.0 °C 4.7 °C 1008.7 hPa NNW 7.2 km/h 13.4 km/h 57% 0.0 mm 1 W/m2
17:13 12.8 °C 4.7 °C 1008.7 hPa NNW 9.7 km/h 14.8 km/h 58% 0.0 mm 0 W/m2
17:18 12.7 °C 4.7 °C 1008.4 hPa NNW 3.5 km/h 14.8 km/h 58% 0.0 mm 0 W/m2
17:23 12.6 °C 4.6 °C 1008.7 hPa NNW 7.2 km/h 14.8 km/h 58% 0.0 mm 0 W/m2
17:28 12.5 °C 4.4 °C 1008.7 hPa NNW 2.6 km/h 14.8 km/h 58% 0.0 mm 0 W/m2
17:33 12.5 °C 4.4 °C 1008.7 hPa North 9.7 km/h 15.8 km/h 58% 0.0 mm 0 W/m2
17:38 12.5 °C 4.4 °C 1008.7 hPa North 7.2 km/h 15.8 km/h 58% 0.0 mm 0 W/m2
17:43 12.4 °C 4.6 °C 1008.4 hPa North 5.0 km/h 15.8 km/h 59% 0.0 mm 0 W/m2
17:48 12.2 °C 4.7 °C 1008.4 hPa North 6.1 km/h 9.7 km/h 60% 0.0 mm 0 W/m2
17:53 12.1 °C 4.8 °C 1008.4 hPa North 7.2 km/h 11.1 km/h 61% 0.0 mm 0 W/m2
17:58 12.1 °C 4.8 °C 1008.4 hPa NNW 8.7 km/h 14.8 km/h 61% 0.0 mm 0 W/m2
18:03 12.2 °C 4.7 °C 1008.4 hPa NW 9.7 km/h 15.8 km/h 60% 0.0 mm 0 W/m2
18:08 12.2 °C 4.7 °C 1008.4 hPa NW 7.2 km/h 15.8 km/h 60% 0.0 mm 0 W/m2
18:13 12.1 °C 4.6 °C 1008.0 hPa NW 7.2 km/h 15.8 km/h 60% 0.0 mm 0 W/m2
18:19 12.1 °C 4.8 °C 1007.7 hPa NW 11.1 km/h 15.8 km/h 61% 0.0 mm 0 W/m2
18:24 12.1 °C 4.8 °C 1007.7 hPa NNW 12.2 km/h 20.9 km/h 61% 0.0 mm 0 W/m2
18:29 12.3 °C 4.5 °C 1007.7 hPa NNW 12.2 km/h 23.3 km/h 59% 0.0 mm 0 W/m2
18:35 12.3 °C 4.5 °C 1007.7 hPa NW 11.1 km/h 23.3 km/h 59% 0.0 mm 0 W/m2
18:40 12.1 °C 4.8 °C 1007.7 hPa NNW 6.1 km/h 19.5 km/h 61% 0.0 mm 0 W/m2
18:45 11.8 °C 4.8 °C 1007.7 hPa NNW 14.8 km/h 19.5 km/h 62% 0.0 mm 0 W/m2
18:50 11.7 °C 4.7 °C 1007.7 hPa North 11.1 km/h 19.5 km/h 62% 0.0 mm 0 W/m2
18:55 12.0 °C 4.7 °C 1007.3 hPa North 9.7 km/h 23.3 km/h 61% 0.0 mm 0 W/m2
19:00 12.3 °C 4.5 °C 1007.0 hPa North 13.4 km/h 23.3 km/h 59% 0.0 mm 0 W/m2
19:05 12.4 °C 4.4 °C 1007.3 hPa NNW 9.7 km/h 21.9 km/h 58% 0.0 mm 0 W/m2
19:10 12.5 °C 4.2 °C 1007.0 hPa NNW 12.2 km/h 23.3 km/h 57% 0.0 mm 0 W/m2
19:15 12.5 °C 4.2 °C 1007.3 hPa NW 7.2 km/h 23.3 km/h 57% 0.0 mm 0 W/m2
19:20 12.3 °C 4.3 °C 1007.3 hPa NNW 11.1 km/h 20.9 km/h 58% 0.0 mm 0 W/m2
19:25 12.4 °C 4.4 °C 1007.3 hPa NNW 6.1 km/h 20.9 km/h 58% 0.0 mm 0 W/m2
19:30 12.3 °C 4.3 °C 1007.3 hPa NNW 6.1 km/h 19.5 km/h 58% 0.0 mm 0 W/m2
19:35 12.2 °C 4.4 °C 1007.0 hPa NNW 7.2 km/h 17.2 km/h 59% 0.0 mm 0 W/m2
19:40 12.1 °C 4.3 °C 1007.0 hPa NNW 7.2 km/h 17.2 km/h 59% 0.0 mm 0 W/m2
19:45 11.9 °C 4.8 °C 1007.0 hPa NNW 6.1 km/h 15.8 km/h 62% 0.0 mm 0 W/m2
19:50 11.9 °C 4.8 °C 1007.0 hPa NNW 11.1 km/h 15.8 km/h 62% 0.0 mm 0 W/m2
19:55 11.9 °C 4.8 °C 1007.3 hPa NNW 8.7 km/h 15.8 km/h 62% 0.0 mm 0 W/m2
20:00 11.9 °C 4.8 °C 1007.0 hPa North 7.2 km/h 15.8 km/h 62% 0.0 mm 0 W/m2
20:05 11.9 °C 4.8 °C 1007.0 hPa North 8.7 km/h 15.8 km/h 62% 0.0 mm 0 W/m2
20:10 11.9 °C 4.8 °C 1007.0 hPa NNW 6.1 km/h 15.8 km/h 62% 0.0 mm 0 W/m2
20:15 12.0 °C 4.7 °C 1007.0 hPa NNW 6.1 km/h 18.3 km/h 61% 0.0 mm 0 W/m2
20:20 12.2 °C 4.9 °C 1006.7 hPa NNW 9.7 km/h 21.9 km/h 61% 0.0 mm 0 W/m2
20:25 12.1 °C 4.8 °C 1006.7 hPa North 6.1 km/h 21.9 km/h 61% 0.0 mm 0 W/m2
20:30 12.1 °C 4.6 °C 1006.7 hPa NNW 11.1 km/h 15.8 km/h 60% 0.0 mm 0 W/m2
20:35 12.3 °C 4.5 °C 1006.7 hPa NW 9.7 km/h 18.3 km/h 59% 0.0 mm 0 W/m2
20:40 12.5 °C 4.2 °C 1007.0 hPa NW 9.7 km/h 21.9 km/h 57% 0.0 mm 0 W/m2
20:45 12.7 °C 4.2 °C 1006.7 hPa NNW 13.4 km/h 21.9 km/h 56% 0.0 mm 0 W/m2
20:50 12.6 °C 4.1 °C 1006.7 hPa NNW 17.2 km/h 27.0 km/h 56% 0.0 mm 0 W/m2
20:55 12.7 °C 3.9 °C 1006.7 hPa NNW 15.8 km/h 27.0 km/h 55% 0.0 mm 0 W/m2
21:00 12.6 °C 3.8 °C 1006.3 hPa NNW 17.2 km/h 24.5 km/h 55% 0.0 mm 0 W/m2
21:05 12.7 °C 3.9 °C 1006.3 hPa NW 11.1 km/h 28.0 km/h 55% 0.0 mm 0 W/m2
21:10 12.7 °C 3.9 °C 1006.3 hPa NW 13.4 km/h 28.0 km/h 55% 0.0 mm 0 W/m2
21:15 12.6 °C 3.8 °C 1006.7 hPa NNW 7.2 km/h 24.5 km/h 55% 0.0 mm 0 W/m2
21:21 12.7 °C 3.6 °C 1006.3 hPa NNW 11.1 km/h 23.3 km/h 54% 0.0 mm 0 W/m2
21:26 12.8 °C 3.7 °C 1006.3 hPa NNW 18.3 km/h 24.5 km/h 54% 0.0 mm 0 W/m2
21:31 12.6 °C 3.6 °C 1006.3 hPa NW 12.2 km/h 28.0 km/h 54% 0.0 mm 0 W/m2
21:36 12.6 °C 3.6 °C 1006.0 hPa NNW 11.1 km/h 28.0 km/h 54% 0.0 mm 0 W/m2
21:41 12.6 °C 3.6 °C 1006.0 hPa NNW 12.2 km/h 27.0 km/h 54% 0.0 mm 0 W/m2
21:46 12.6 °C 3.6 °C 1006.0 hPa NNW 18.3 km/h 29.4 km/h 54% 0.0 mm 0 W/m2
21:51 12.8 °C 3.4 °C 1006.3 hPa NNW 18.3 km/h 31.7 km/h 53% 0.0 mm 0 W/m2
21:56 12.8 °C 3.4 °C 1006.3 hPa NW 14.8 km/h 31.7 km/h 53% 0.0 mm 0 W/m2
22:01 12.7 °C 3.4 °C 1006.3 hPa NW 7.2 km/h 24.5 km/h 53% 0.0 mm 0 W/m2
22:20 12.4 °C 3.3 °C 1006.0 hPa NW 11.1 km/h 27.0 km/h 54% 0.0 mm 0 W/m2
22:25 12.3 °C 3.3 °C 1006.3 hPa NNW 12.2 km/h 19.5 km/h 54% 0.0 mm 0 W/m2
22:30 12.3 °C 3.5 °C 1006.3 hPa North 6.1 km/h 19.5 km/h 55% 0.0 mm 0 W/m2
22:35 12.3 °C 3.5 °C 1006.3 hPa NNW 11.1 km/h 21.9 km/h 55% 0.0 mm 0 W/m2
22:40 12.3 °C 3.5 °C 1006.7 hPa NNW 6.1 km/h 21.9 km/h 55% 0.0 mm 0 W/m2
22:45 12.2 °C 3.4 °C 1006.3 hPa NNW 6.1 km/h 17.2 km/h 55% 0.0 mm 0 W/m2
22:50 12.2 °C 3.4 °C 1006.3 hPa NNW 7.2 km/h 14.8 km/h 55% 0.0 mm 0 W/m2
22:55 12.2 °C 3.7 °C 1006.3 hPa NNW 6.1 km/h 14.8 km/h 56% 0.0 mm 0 W/m2
23:00 12.0 °C 3.5 °C 1006.3 hPa North 7.2 km/h 18.3 km/h 56% 0.0 mm 0 W/m2
23:05 12.1 °C 3.6 °C 1006.0 hPa NNW 13.4 km/h 25.6 km/h 56% 0.0 mm 0 W/m2
23:10 12.3 °C 3.5 °C 1006.0 hPa NNW 11.1 km/h 25.6 km/h 55% 0.0 mm 0 W/m2
23:15 12.2 °C 3.7 °C 1006.0 hPa North 7.2 km/h 19.5 km/h 56% 0.0 mm 0 W/m2
23:20 12.1 °C 3.6 °C 1006.3 hPa NNW 9.7 km/h 21.9 km/h 56% 0.0 mm 0 W/m2
23:25 12.2 °C 3.7 °C 1006.0 hPa North 8.7 km/h 21.9 km/h 56% 0.0 mm 0 W/m2
23:30 12.2 °C 3.7 °C 1006.0 hPa North 9.7 km/h 17.2 km/h 56% 0.0 mm 0 W/m2
23:35 12.2 °C 3.7 °C 1005.6 hPa NNW 6.1 km/h 14.8 km/h 56% 0.0 mm 0 W/m2
23:40 12.1 °C 3.8 °C 1005.6 hPa NNW 5.0 km/h 13.4 km/h 57% 0.0 mm 0 W/m2
23:45 12.1 °C 3.8 °C 1006.0 hPa NNW 5.0 km/h 14.8 km/h 57% 0.0 mm 0 W/m2
23:50 12.2 °C 3.9 °C 1005.6 hPa North 8.7 km/h 18.3 km/h 57% 0.0 mm 0 W/m2
23:55 12.1 °C 3.8 °C 1006.0 hPa NNE 2.6 km/h 18.3 km/h 57% 0.0 mm 0 W/m2
Northern Hawkes Bay. New Zealand Historic Data
Compliments of Weather Underground - 2 mb